メインページ
METAR-TAF:

METAR-TAF

空港 :

Castlegar, ブリティッシュコロンビア州, カナダ

緯度: 49-18N, 経度: 117-38W, 海抜: 495m

現時点の気象観測

当レポートは8時間45分前の01:00(UTC)に作成
の風 9kt、から西/南西の間で変化する
気温 34°C
湿度 20%
気圧 1012 hPa
視程: 24.1km
高度25000ftの千切れ雲あり

METAR: CYCG 030100Z 19009KT 170V240 15SM BKN250 34/08 A2987 RMK CI6 LAST STFD OBS/NEXT 031500Z SLP106 DENSITY ALT 4200FT

時間: 02:45 (09:45 UTC)

予報

当レポートは9時間7分前の00:38(UTC)に作成
予報は03日の 01時(UTC)から 03日の 04時(UTC)まで有効
の風 12kt、最大22ktの突風を伴う
視程: 10km
高度25000ftの千切れ雲あり

TAF: CYCG 030038Z 0301/0304 18012G22KT P6SM BKN250 RMK NXT FCST WILL BE ISSUED AT 031445Z

4,000以上の空港の気象観測と天気予報(METAR報とTAF報)

利用可能な観測所は地図上に黄色い丸と赤い丸で示す。

丸の上にカーソルを重ねると観測所名を参照できる。

次にクリックすると気象観測と天気予報を参照できる。

マップの切り替え:黒色「×」印の緑ボタンをクリックして拡大、「-」印の緑ボタンをクリックして縮小、緑色の三角印をクリックして隣りの地図に切り替え


METAR-TAF: